Chihuahua, Texas
Current Conditions -  °F | °C
As of 9:53 AM on Wednesday 28 Jan 2015 (Local Time) from KMFE Reporting Station
Clear Clear  
Wind Chill: 66°   Ceiling: Unl
Heat Index: 66°   Visibility: 10mi
Dew Point: 58°   Wind: 12mph
Humidity: 75%   Direction: 160°SSE
Pressure: 30.2"   Gusts: 21mph
Location:  26.2167°N, 98.325°W
Report Text: KMFE 281553Z 16010G18KT 10SM CLR 19/14 A3020 RMK AO2 SLP224 T01890144
Loading
Personal Weather Stations






























Interactive Weather Map New forecast layout! Learn more

10-Day Weather Forecast

Advertisements
Track Severe Weather on mobile